sensor_id;sensor_type;location;lat;lon;timestamp;P1;durP1;ratioP1;P2;durP2;ratioP2
18899;SDS011;9582;52.018;6.306;2022-10-13T00:00:11;22.90;;;11.47;;
18899;SDS011;9582;52.018;6.306;2022-10-13T00:02:38;21.97;;;12.47;;
18899;SDS011;9582;52.018;6.306;2022-10-13T00:05:04;22.90;;;11.97;;
18899;SDS011;9582;52.018;6.306;2022-10-13T00:07:31;21.73;;;11.37;;
18899;SDS011;9582;52.018;6.306;2022-10-13T00:09:58;15.93;;;11.70;;
18899;SDS011;9582;52.018;6.306;2022-10-13T00:12:25;17.90;;;11.07;;
18899;SDS011;9582;52.018;6.306;2022-10-13T00:14:52;20.27;;;11.43;;
18899;SDS011;9582;52.018;6.306;2022-10-13T00:17:18;20.77;;;13.93;;
18899;SDS011;9582;52.018;6.306;2022-10-13T00:19:45;19.40;;;12.50;;
18899;SDS011;9582;52.018;6.306;2022-10-13T00:22:12;22.27;;;11.80;;
18899;SDS011;9582;52.018;6.306;2022-10-13T00:24:42;17.30;;;11.47;;
18899;SDS011;9582;52.018;6.306;2022-10-13T00:27:10;18.13;;;11.73;;
18899;SDS011;9582;52.018;6.306;2022-10-13T00:29:38;18.23;;;12.30;;
18899;SDS011;9582;52.018;6.306;2022-10-13T00:32:05;20.27;;;12.70;;
18899;SDS011;9582;52.018;6.306;2022-10-13T00:34:31;21.97;;;13.23;;
18899;SDS011;9582;52.018;6.306;2022-10-13T00:36:58;20.90;;;12.30;;
18899;SDS011;9582;52.018;6.306;2022-10-13T00:39:25;18.07;;;12.60;;
18899;SDS011;9582;52.018;6.306;2022-10-13T00:41:51;22.03;;;12.67;;
18899;SDS011;9582;52.018;6.306;2022-10-13T00:47:23;24.23;;;13.30;;
18899;SDS011;9582;52.018;6.306;2022-10-13T00:49:51;23.60;;;13.13;;
18899;SDS011;9582;52.018;6.306;2022-10-13T00:52:20;20.17;;;12.90;;
18899;SDS011;9582;52.018;6.306;2022-10-13T00:54:47;19.20;;;12.87;;
18899;SDS011;9582;52.018;6.306;2022-10-13T00:57:16;17.67;;;13.00;;
18899;SDS011;9582;52.018;6.306;2022-10-13T00:59:45;20.37;;;13.70;;
18899;SDS011;9582;52.018;6.306;2022-10-13T01:02:12;21.37;;;13.90;;
18899;SDS011;9582;52.018;6.306;2022-10-13T01:04:41;19.60;;;13.20;;
18899;SDS011;9582;52.018;6.306;2022-10-13T01:07:10;21.83;;;14.27;;
18899;SDS011;9582;52.018;6.306;2022-10-13T01:09:38;19.33;;;13.13;;
18899;SDS011;9582;52.018;6.306;2022-10-13T01:12:07;23.13;;;13.47;;
18899;SDS011;9582;52.018;6.306;2022-10-13T01:14:44;21.67;;;14.20;;
18899;SDS011;9582;52.018;6.306;2022-10-13T01:17:18;24.13;;;14.10;;
18899;SDS011;9582;52.018;6.306;2022-10-13T01:22:54;24.10;;;14.20;;
18899;SDS011;9582;52.018;6.306;2022-10-13T01:25:36;20.60;;;14.53;;
18899;SDS011;9582;52.018;6.306;2022-10-13T01:28:17;21.73;;;14.30;;
18899;SDS011;9582;52.018;6.306;2022-10-13T01:31:00;23.27;;;14.77;;
18899;SDS011;9582;52.018;6.306;2022-10-13T01:33:34;23.43;;;15.13;;
18899;SDS011;9582;52.018;6.306;2022-10-13T01:36:10;22.43;;;14.57;;
18899;SDS011;9582;52.018;6.306;2022-10-13T01:38:49;22.93;;;14.83;;
18899;SDS011;9582;52.018;6.306;2022-10-13T01:41:23;25.40;;;15.43;;
18899;SDS011;9582;52.018;6.306;2022-10-13T01:43:54;25.53;;;14.93;;
18899;SDS011;9582;52.018;6.306;2022-10-13T01:46:27;25.37;;;15.47;;
18899;SDS011;9582;52.018;6.306;2022-10-13T01:48:57;25.40;;;15.40;;
18899;SDS011;9582;52.018;6.306;2022-10-13T01:51:26;24.47;;;15.33;;
18899;SDS011;9582;52.018;6.306;2022-10-13T01:53:55;29.20;;;15.80;;
18899;SDS011;9582;52.018;6.306;2022-10-13T01:56:22;24.00;;;16.20;;
18899;SDS011;9582;52.018;6.306;2022-10-13T01:58:49;24.43;;;15.63;;
18899;SDS011;9582;52.018;6.306;2022-10-13T02:01:21;24.70;;;15.60;;
18899;SDS011;9582;52.018;6.306;2022-10-13T02:03:59;25.57;;;16.57;;
18899;SDS011;9582;52.018;6.306;2022-10-13T02:06:37;23.37;;;15.10;;
18899;SDS011;9582;52.018;6.306;2022-10-13T02:09:10;23.87;;;16.40;;
18899;SDS011;9582;52.018;6.306;2022-10-13T02:11:45;24.97;;;16.13;;
18899;SDS011;9582;52.018;6.306;2022-10-13T02:14:17;25.23;;;15.97;;
18899;SDS011;9582;52.018;6.306;2022-10-13T02:16:49;24.70;;;16.07;;
18899;SDS011;9582;52.018;6.306;2022-10-13T02:19:18;28.57;;;16.87;;
18899;SDS011;9582;52.018;6.306;2022-10-13T02:21:45;25.30;;;15.20;;
18899;SDS011;9582;52.018;6.306;2022-10-13T02:24:13;25.17;;;16.10;;
18899;SDS011;9582;52.018;6.306;2022-10-13T02:26:39;27.30;;;16.23;;
18899;SDS011;9582;52.018;6.306;2022-10-13T02:29:09;25.83;;;15.57;;
18899;SDS011;9582;52.018;6.306;2022-10-13T02:31:38;26.20;;;15.73;;
18899;SDS011;9582;52.018;6.306;2022-10-13T02:34:07;25.97;;;16.47;;
18899;SDS011;9582;52.018;6.306;2022-10-13T02:36:34;25.83;;;16.80;;
18899;SDS011;9582;52.018;6.306;2022-10-13T02:39:02;25.50;;;16.40;;
18899;SDS011;9582;52.018;6.306;2022-10-13T02:41:28;25.43;;;16.77;;
18899;SDS011;9582;52.018;6.306;2022-10-13T02:43:55;26.17;;;16.87;;
18899;SDS011;9582;52.018;6.306;2022-10-13T02:46:26;23.97;;;15.87;;
18899;SDS011;9582;52.018;6.306;2022-10-13T02:48:52;24.43;;;16.40;;
18899;SDS011;9582;52.018;6.306;2022-10-13T02:51:20;21.63;;;16.20;;
18899;SDS011;9582;52.018;6.306;2022-10-13T02:53:46;21.27;;;14.97;;
18899;SDS011;9582;52.018;6.306;2022-10-13T02:56:13;25.67;;;16.30;;
18899;SDS011;9582;52.018;6.306;2022-10-13T02:58:39;26.87;;;16.50;;
18899;SDS011;9582;52.018;6.306;2022-10-13T03:01:06;23.10;;;15.93;;
18899;SDS011;9582;52.018;6.306;2022-10-13T03:03:33;25.03;;;16.80;;
18899;SDS011;9582;52.018;6.306;2022-10-13T03:06:00;26.23;;;16.00;;
18899;SDS011;9582;52.018;6.306;2022-10-13T03:08:29;25.73;;;16.13;;
18899;SDS011;9582;52.018;6.306;2022-10-13T03:10:57;24.63;;;16.23;;
18899;SDS011;9582;52.018;6.306;2022-10-13T03:13:23;26.30;;;16.73;;
18899;SDS011;9582;52.018;6.306;2022-10-13T03:15:50;21.07;;;16.50;;
18899;SDS011;9582;52.018;6.306;2022-10-13T03:18:17;25.03;;;16.47;;
18899;SDS011;9582;52.018;6.306;2022-10-13T03:20:43;27.50;;;15.80;;
18899;SDS011;9582;52.018;6.306;2022-10-13T03:23:10;23.80;;;16.30;;
18899;SDS011;9582;52.018;6.306;2022-10-13T03:25:38;26.53;;;17.13;;
18899;SDS011;9582;52.018;6.306;2022-10-13T03:28:04;22.33;;;16.47;;
18899;SDS011;9582;52.018;6.306;2022-10-13T03:30:32;25.00;;;16.13;;
18899;SDS011;9582;52.018;6.306;2022-10-13T03:32:58;26.80;;;16.23;;
18899;SDS011;9582;52.018;6.306;2022-10-13T03:35:25;24.93;;;15.03;;
18899;SDS011;9582;52.018;6.306;2022-10-13T03:37:52;24.10;;;16.83;;
18899;SDS011;9582;52.018;6.306;2022-10-13T03:40:20;22.27;;;15.93;;
18899;SDS011;9582;52.018;6.306;2022-10-13T03:42:48;26.20;;;16.00;;
18899;SDS011;9582;52.018;6.306;2022-10-13T03:45:14;23.77;;;15.17;;
18899;SDS011;9582;52.018;6.306;2022-10-13T03:47:41;22.77;;;15.23;;
18899;SDS011;9582;52.018;6.306;2022-10-13T03:50:08;23.07;;;14.93;;
18899;SDS011;9582;52.018;6.306;2022-10-13T03:52:35;23.43;;;15.10;;
18899;SDS011;9582;52.018;6.306;2022-10-13T03:55:01;24.47;;;15.23;;
18899;SDS011;9582;52.018;6.306;2022-10-13T03:57:28;25.00;;;15.53;;
18899;SDS011;9582;52.018;6.306;2022-10-13T03:59:56;25.53;;;15.90;;
18899;SDS011;9582;52.018;6.306;2022-10-13T04:02:25;23.23;;;15.17;;
18899;SDS011;9582;52.018;6.306;2022-10-13T04:04:53;22.13;;;15.33;;
18899;SDS011;9582;52.018;6.306;2022-10-13T04:07:19;23.47;;;15.23;;
18899;SDS011;9582;52.018;6.306;2022-10-13T04:09:46;23.73;;;15.70;;
18899;SDS011;9582;52.018;6.306;2022-10-13T04:12:12;25.67;;;15.43;;
18899;SDS011;9582;52.018;6.306;2022-10-13T04:14:39;22.27;;;15.50;;
18899;SDS011;9582;52.018;6.306;2022-10-13T04:17:07;21.90;;;14.70;;
18899;SDS011;9582;52.018;6.306;2022-10-13T04:19:34;23.83;;;15.10;;
18899;SDS011;9582;52.018;6.306;2022-10-13T04:22:03;22.13;;;15.67;;
18899;SDS011;9582;52.018;6.306;2022-10-13T04:24:30;23.13;;;15.63;;
18899;SDS011;9582;52.018;6.306;2022-10-13T04:26:57;23.03;;;15.67;;
18899;SDS011;9582;52.018;6.306;2022-10-13T04:29:23;22.27;;;15.27;;
18899;SDS011;9582;52.018;6.306;2022-10-13T04:31:50;22.87;;;14.90;;
18899;SDS011;9582;52.018;6.306;2022-10-13T04:34:18;22.27;;;16.23;;
18899;SDS011;9582;52.018;6.306;2022-10-13T04:36:45;23.33;;;15.33;;
18899;SDS011;9582;52.018;6.306;2022-10-13T04:39:11;22.33;;;15.43;;
18899;SDS011;9582;52.018;6.306;2022-10-13T04:41:38;25.00;;;16.03;;
18899;SDS011;9582;52.018;6.306;2022-10-13T04:44:04;25.80;;;15.87;;
18899;SDS011;9582;52.018;6.306;2022-10-13T04:46:31;23.23;;;15.70;;
18899;SDS011;9582;52.018;6.306;2022-10-13T04:48:57;23.67;;;15.33;;
18899;SDS011;9582;52.018;6.306;2022-10-13T04:51:31;21.83;;;15.33;;
18899;SDS011;9582;52.018;6.306;2022-10-13T04:54:00;25.03;;;15.63;;
18899;SDS011;9582;52.018;6.306;2022-10-13T04:56:27;22.20;;;16.97;;
18899;SDS011;9582;52.018;6.306;2022-10-13T04:58:57;21.30;;;15.57;;
18899;SDS011;9582;52.018;6.306;2022-10-13T05:01:25;23.40;;;15.10;;
18899;SDS011;9582;52.018;6.306;2022-10-13T05:03:52;21.80;;;15.30;;
18899;SDS011;9582;52.018;6.306;2022-10-13T05:06:20;28.43;;;16.33;;
18899;SDS011;9582;52.018;6.306;2022-10-13T05:08:55;23.87;;;16.07;;
18899;SDS011;9582;52.018;6.306;2022-10-13T05:11:21;25.23;;;15.70;;
18899;SDS011;9582;52.018;6.306;2022-10-13T05:13:49;23.70;;;15.60;;
18899;SDS011;9582;52.018;6.306;2022-10-13T05:16:17;25.33;;;15.17;;
18899;SDS011;9582;52.018;6.306;2022-10-13T05:18:45;26.17;;;16.43;;
18899;SDS011;9582;52.018;6.306;2022-10-13T05:21:12;25.13;;;15.80;;
18899;SDS011;9582;52.018;6.306;2022-10-13T05:23:39;24.60;;;15.67;;
18899;SDS011;9582;52.018;6.306;2022-10-13T05:26:08;23.67;;;16.23;;
18899;SDS011;9582;52.018;6.306;2022-10-13T05:28:36;24.67;;;16.17;;
18899;SDS011;9582;52.018;6.306;2022-10-13T05:31:07;26.47;;;15.97;;
18899;SDS011;9582;52.018;6.306;2022-10-13T05:33:35;25.00;;;16.07;;
18899;SDS011;9582;52.018;6.306;2022-10-13T05:36:05;27.00;;;16.97;;
18899;SDS011;9582;52.018;6.306;2022-10-13T05:38:35;23.20;;;15.03;;
18899;SDS011;9582;52.018;6.306;2022-10-13T05:41:03;26.53;;;15.67;;
18899;SDS011;9582;52.018;6.306;2022-10-13T05:43:31;25.73;;;15.73;;
18899;SDS011;9582;52.018;6.306;2022-10-13T05:45:58;25.83;;;15.37;;
18899;SDS011;9582;52.018;6.306;2022-10-13T05:48:27;23.40;;;15.87;;
18899;SDS011;9582;52.018;6.306;2022-10-13T05:50:54;23.10;;;15.80;;
18899;SDS011;9582;52.018;6.306;2022-10-13T05:53:24;24.57;;;15.90;;
18899;SDS011;9582;52.018;6.306;2022-10-13T05:55:55;24.33;;;15.47;;
18899;SDS011;9582;52.018;6.306;2022-10-13T05:58:31;24.37;;;15.63;;
18899;SDS011;9582;52.018;6.306;2022-10-13T06:00:59;26.27;;;15.20;;
18899;SDS011;9582;52.018;6.306;2022-10-13T06:03:27;24.03;;;14.93;;
18899;SDS011;9582;52.018;6.306;2022-10-13T06:05:54;23.90;;;14.63;;
18899;SDS011;9582;52.018;6.306;2022-10-13T06:08:21;25.43;;;15.20;;
18899;SDS011;9582;52.018;6.306;2022-10-13T06:10:49;22.17;;;15.13;;
18899;SDS011;9582;52.018;6.306;2022-10-13T06:13:17;26.07;;;15.97;;
18899;SDS011;9582;52.018;6.306;2022-10-13T06:15:45;24.50;;;15.23;;
18899;SDS011;9582;52.018;6.306;2022-10-13T06:18:11;25.57;;;15.17;;
18899;SDS011;9582;52.018;6.306;2022-10-13T06:20:38;22.43;;;14.83;;
18899;SDS011;9582;52.018;6.306;2022-10-13T06:23:04;29.83;;;16.00;;
18899;SDS011;9582;52.018;6.306;2022-10-13T06:25:32;27.27;;;15.47;;
18899;SDS011;9582;52.018;6.306;2022-10-13T06:27:58;24.67;;;15.80;;
18899;SDS011;9582;52.018;6.306;2022-10-13T06:30:25;25.50;;;16.30;;
18899;SDS011;9582;52.018;6.306;2022-10-13T06:32:53;25.57;;;15.83;;
18899;SDS011;9582;52.018;6.306;2022-10-13T06:35:20;25.20;;;16.00;;
18899;SDS011;9582;52.018;6.306;2022-10-13T06:37:47;30.97;;;16.97;;
18899;SDS011;9582;52.018;6.306;2022-10-13T06:40:14;25.60;;;15.80;;
18899;SDS011;9582;52.018;6.306;2022-10-13T06:42:41;21.20;;;14.17;;
18899;SDS011;9582;52.018;6.306;2022-10-13T06:45:08;25.57;;;15.33;;
18899;SDS011;9582;52.018;6.306;2022-10-13T06:47:38;21.57;;;15.67;;
18899;SDS011;9582;52.018;6.306;2022-10-13T06:50:06;25.23;;;15.80;;
18899;SDS011;9582;52.018;6.306;2022-10-13T06:52:33;22.60;;;16.03;;
18899;SDS011;9582;52.018;6.306;2022-10-13T06:54:59;22.57;;;15.57;;
18899;SDS011;9582;52.018;6.306;2022-10-13T06:57:27;32.03;;;16.33;;
18899;SDS011;9582;52.018;6.306;2022-10-13T06:59:55;24.47;;;15.87;;
18899;SDS011;9582;52.018;6.306;2022-10-13T07:02:22;26.43;;;15.20;;
18899;SDS011;9582;52.018;6.306;2022-10-13T07:04:49;23.33;;;15.97;;
18899;SDS011;9582;52.018;6.306;2022-10-13T07:07:16;23.77;;;15.70;;
18899;SDS011;9582;52.018;6.306;2022-10-13T07:09:43;26.20;;;16.23;;
18899;SDS011;9582;52.018;6.306;2022-10-13T07:12:11;22.67;;;15.30;;
18899;SDS011;9582;52.018;6.306;2022-10-13T07:14:38;25.90;;;15.90;;
18899;SDS011;9582;52.018;6.306;2022-10-13T07:17:04;23.43;;;15.67;;
18899;SDS011;9582;52.018;6.306;2022-10-13T07:19:31;24.10;;;15.87;;
18899;SDS011;9582;52.018;6.306;2022-10-13T07:21:58;24.07;;;16.37;;
18899;SDS011;9582;52.018;6.306;2022-10-13T07:24:27;23.80;;;15.27;;
18899;SDS011;9582;52.018;6.306;2022-10-13T07:26:53;23.95;;;15.57;;
18899;SDS011;9582;52.018;6.306;2022-10-13T07:29:20;25.23;;;15.70;;
18899;SDS011;9582;52.018;6.306;2022-10-13T07:31:46;24.58;;;15.00;;
18899;SDS011;9582;52.018;6.306;2022-10-13T07:34:13;24.20;;;16.17;;
18899;SDS011;9582;52.018;6.306;2022-10-13T07:36:40;20.83;;;14.93;;
18899;SDS011;9582;52.018;6.306;2022-10-13T07:39:07;21.75;;;15.02;;
18899;SDS011;9582;52.018;6.306;2022-10-13T07:41:36;24.43;;;15.27;;
18899;SDS011;9582;52.018;6.306;2022-10-13T07:44:02;22.63;;;15.50;;
18899;SDS011;9582;52.018;6.306;2022-10-13T07:46:29;20.52;;;14.85;;
18899;SDS011;9582;52.018;6.306;2022-10-13T07:48:56;23.70;;;14.93;;
18899;SDS011;9582;52.018;6.306;2022-10-13T07:51:22;25.88;;;16.15;;
18899;SDS011;9582;52.018;6.306;2022-10-13T07:53:49;22.10;;;15.50;;
18899;SDS011;9582;52.018;6.306;2022-10-13T07:56:16;27.30;;;15.18;;
18899;SDS011;9582;52.018;6.306;2022-10-13T07:58:44;21.55;;;14.55;;
18899;SDS011;9582;52.018;6.306;2022-10-13T08:01:12;24.85;;;16.33;;
18899;SDS011;9582;52.018;6.306;2022-10-13T08:03:40;22.17;;;14.88;;
18899;SDS011;9582;52.018;6.306;2022-10-13T08:06:11;23.98;;;14.73;;
18899;SDS011;9582;52.018;6.306;2022-10-13T08:08:38;22.38;;;14.85;;
18899;SDS011;9582;52.018;6.306;2022-10-13T08:11:05;21.95;;;14.98;;
18899;SDS011;9582;52.018;6.306;2022-10-13T08:13:34;19.85;;;13.75;;
18899;SDS011;9582;52.018;6.306;2022-10-13T08:16:12;22.15;;;14.88;;
18899;SDS011;9582;52.018;6.306;2022-10-13T08:18:39;25.45;;;14.75;;
18899;SDS011;9582;52.018;6.306;2022-10-13T08:21:07;24.50;;;15.20;;
18899;SDS011;9582;52.018;6.306;2022-10-13T08:23:38;21.95;;;14.45;;
18899;SDS011;9582;52.018;6.306;2022-10-13T08:26:04;23.98;;;14.77;;
18899;SDS011;9582;52.018;6.306;2022-10-13T08:28:32;25.23;;;14.80;;
18899;SDS011;9582;52.018;6.306;2022-10-13T08:30:59;23.60;;;14.25;;
18899;SDS011;9582;52.018;6.306;2022-10-13T08:33:27;21.20;;;14.63;;
18899;SDS011;9582;52.018;6.306;2022-10-13T08:35:53;26.17;;;14.98;;
18899;SDS011;9582;52.018;6.306;2022-10-13T08:38:22;21.33;;;13.90;;
18899;SDS011;9582;52.018;6.306;2022-10-13T08:40:49;21.05;;;14.27;;
18899;SDS011;9582;52.018;6.306;2022-10-13T08:43:18;20.60;;;14.38;;
18899;SDS011;9582;52.018;6.306;2022-10-13T08:45:47;22.17;;;14.50;;
18899;SDS011;9582;52.018;6.306;2022-10-13T08:48:15;18.67;;;13.65;;
18899;SDS011;9582;52.018;6.306;2022-10-13T08:50:47;20.88;;;14.23;;
18899;SDS011;9582;52.018;6.306;2022-10-13T08:53:17;19.55;;;13.73;;
18899;SDS011;9582;52.018;6.306;2022-10-13T08:55:51;22.50;;;14.40;;
18899;SDS011;9582;52.018;6.306;2022-10-13T08:58:22;19.00;;;14.15;;
18899;SDS011;9582;52.018;6.306;2022-10-13T09:00:51;22.05;;;13.93;;
18899;SDS011;9582;52.018;6.306;2022-10-13T09:03:26;23.30;;;14.65;;
18899;SDS011;9582;52.018;6.306;2022-10-13T09:05:57;20.13;;;13.32;;
18899;SDS011;9582;52.018;6.306;2022-10-13T09:08:39;21.83;;;13.90;;
18899;SDS011;9582;52.018;6.306;2022-10-13T09:11:09;23.33;;;15.10;;
18899;SDS011;9582;52.018;6.306;2022-10-13T09:13:37;21.10;;;14.18;;
18899;SDS011;9582;52.018;6.306;2022-10-13T09:16:04;20.27;;;14.93;;
18899;SDS011;9582;52.018;6.306;2022-10-13T09:18:32;17.42;;;13.70;;
18899;SDS011;9582;52.018;6.306;2022-10-13T09:21:09;23.95;;;14.13;;
18899;SDS011;9582;52.018;6.306;2022-10-13T09:23:36;22.10;;;14.35;;
18899;SDS011;9582;52.018;6.306;2022-10-13T09:26:06;20.67;;;13.75;;
18899;SDS011;9582;52.018;6.306;2022-10-13T09:28:36;19.77;;;13.90;;
18899;SDS011;9582;52.018;6.306;2022-10-13T09:31:04;20.17;;;13.40;;
18899;SDS011;9582;52.018;6.306;2022-10-13T09:33:46;24.95;;;14.55;;
18899;SDS011;9582;52.018;6.306;2022-10-13T09:36:24;17.13;;;13.27;;
18899;SDS011;9582;52.018;6.306;2022-10-13T09:39:05;21.50;;;12.95;;
18899;SDS011;9582;52.018;6.306;2022-10-13T09:41:37;20.55;;;14.38;;
18899;SDS011;9582;52.018;6.306;2022-10-13T09:44:12;20.15;;;14.18;;
18899;SDS011;9582;52.018;6.306;2022-10-13T09:46:45;20.00;;;13.45;;
18899;SDS011;9582;52.018;6.306;2022-10-13T09:49:24;18.73;;;13.52;;
18899;SDS011;9582;52.018;6.306;2022-10-13T09:52:01;23.60;;;13.82;;
18899;SDS011;9582;52.018;6.306;2022-10-13T09:54:35;24.17;;;13.07;;
18899;SDS011;9582;52.018;6.306;2022-10-13T09:57:09;19.38;;;12.30;;
18899;SDS011;9582;52.018;6.306;2022-10-13T09:59:42;18.77;;;12.55;;
18899;SDS011;9582;52.018;6.306;2022-10-13T10:02:15;15.68;;;11.77;;
18899;SDS011;9582;52.018;6.306;2022-10-13T10:04:46;18.08;;;11.95;;
18899;SDS011;9582;52.018;6.306;2022-10-13T10:07:16;24.02;;;13.68;;
18899;SDS011;9582;52.018;6.306;2022-10-13T10:09:46;16.58;;;12.10;;
18899;SDS011;9582;52.018;6.306;2022-10-13T10:12:18;13.48;;;10.50;;
18899;SDS011;9582;52.018;6.306;2022-10-13T10:14:47;14.10;;;9.65;;
18899;SDS011;9582;52.018;6.306;2022-10-13T10:17:16;14.88;;;10.18;;
18899;SDS011;9582;52.018;6.306;2022-10-13T10:19:51;16.30;;;11.05;;
18899;SDS011;9582;52.018;6.306;2022-10-13T10:22:31;17.48;;;10.68;;
18899;SDS011;9582;52.018;6.306;2022-10-13T10:25:07;13.85;;;10.05;;
18899;SDS011;9582;52.018;6.306;2022-10-13T10:27:48;17.80;;;10.43;;
18899;SDS011;9582;52.018;6.306;2022-10-13T10:30:22;19.38;;;10.98;;
18899;SDS011;9582;52.018;6.306;2022-10-13T10:32:50;16.10;;;10.73;;
18899;SDS011;9582;52.018;6.306;2022-10-13T10:35:26;18.40;;;11.48;;
18899;SDS011;9582;52.018;6.306;2022-10-13T10:38:08;17.45;;;10.85;;
18899;SDS011;9582;52.018;6.306;2022-10-13T10:40:48;12.60;;;9.30;;
18899;SDS011;9582;52.018;6.306;2022-10-13T10:43:23;15.85;;;9.45;;
18899;SDS011;9582;52.018;6.306;2022-10-13T10:46:16;14.93;;;9.77;;
18899;SDS011;9582;52.018;6.306;2022-10-13T10:48:45;17.77;;;9.95;;
18899;SDS011;9582;52.018;6.306;2022-10-13T10:51:14;14.82;;;9.85;;
18899;SDS011;9582;52.018;6.306;2022-10-13T10:53:47;15.88;;;10.40;;
18899;SDS011;9582;52.018;6.306;2022-10-13T10:56:23;15.00;;;10.70;;
18899;SDS011;9582;52.018;6.306;2022-10-13T10:59:00;14.63;;;10.02;;
18899;SDS011;9582;52.018;6.306;2022-10-13T11:01:35;24.10;;;10.95;;
18899;SDS011;9582;52.018;6.306;2022-10-13T11:06:59;16.48;;;10.55;;
18899;SDS011;9582;52.018;6.306;2022-10-13T11:12:44;26.63;;;12.18;;
18899;SDS011;9582;52.018;6.306;2022-10-13T11:15:13;18.45;;;12.32;;
18899;SDS011;9582;52.018;6.306;2022-10-13T11:17:46;20.23;;;11.88;;
18899;SDS011;9582;52.018;6.306;2022-10-13T11:23:25;18.52;;;12.43;;
18899;SDS011;9582;52.018;6.306;2022-10-13T11:28:55;18.33;;;13.38;;
18899;SDS011;9582;52.018;6.306;2022-10-13T11:31:23;16.48;;;13.13;;
18899;SDS011;9582;52.018;6.306;2022-10-13T11:33:52;18.70;;;13.50;;
18899;SDS011;9582;52.018;6.306;2022-10-13T11:36:28;19.35;;;13.35;;
18899;SDS011;9582;52.018;6.306;2022-10-13T11:39:06;19.63;;;13.75;;
18899;SDS011;9582;52.018;6.306;2022-10-13T11:41:50;21.25;;;13.73;;
18899;SDS011;9582;52.018;6.306;2022-10-13T11:44:24;19.60;;;14.25;;
18899;SDS011;9582;52.018;6.306;2022-10-13T11:46:59;24.35;;;14.48;;
18899;SDS011;9582;52.018;6.306;2022-10-13T11:52:29;22.23;;;14.73;;
18899;SDS011;9582;52.018;6.306;2022-10-13T11:55:13;21.50;;;14.77;;
18899;SDS011;9582;52.018;6.306;2022-10-13T11:57:44;20.38;;;14.68;;
18899;SDS011;9582;52.018;6.306;2022-10-13T12:00:13;23.45;;;15.25;;
18899;SDS011;9582;52.018;6.306;2022-10-13T12:02:47;22.67;;;15.95;;
18899;SDS011;9582;52.018;6.306;2022-10-13T12:05:19;23.75;;;14.48;;
18899;SDS011;9582;52.018;6.306;2022-10-13T12:07:50;21.35;;;15.55;;
18899;SDS011;9582;52.018;6.306;2022-10-13T12:10:20;25.70;;;15.30;;
18899;SDS011;9582;52.018;6.306;2022-10-13T12:12:51;23.23;;;16.52;;
18899;SDS011;9582;52.018;6.306;2022-10-13T12:15:29;26.90;;;17.75;;
18899;SDS011;9582;52.018;6.306;2022-10-13T12:17:57;26.15;;;16.95;;
18899;SDS011;9582;52.018;6.306;2022-10-13T12:20:28;27.20;;;18.33;;
18899;SDS011;9582;52.018;6.306;2022-10-13T12:22:56;28.70;;;18.30;;
18899;SDS011;9582;52.018;6.306;2022-10-13T12:25:23;28.33;;;19.33;;
18899;SDS011;9582;52.018;6.306;2022-10-13T12:27:58;27.13;;;19.58;;
18899;SDS011;9582;52.018;6.306;2022-10-13T12:30:26;30.75;;;20.20;;
18899;SDS011;9582;52.018;6.306;2022-10-13T12:32:54;28.35;;;20.08;;
18899;SDS011;9582;52.018;6.306;2022-10-13T12:35:23;31.75;;;20.55;;
18899;SDS011;9582;52.018;6.306;2022-10-13T12:37:52;25.13;;;18.40;;
18899;SDS011;9582;52.018;6.306;2022-10-13T12:40:20;35.40;;;20.67;;
18899;SDS011;9582;52.018;6.306;2022-10-13T12:42:47;33.03;;;20.48;;
18899;SDS011;9582;52.018;6.306;2022-10-13T12:45:17;30.58;;;20.15;;
18899;SDS011;9582;52.018;6.306;2022-10-13T12:47:46;31.10;;;20.25;;
18899;SDS011;9582;52.018;6.306;2022-10-13T12:53:12;29.67;;;20.45;;
18899;SDS011;9582;52.018;6.306;2022-10-13T12:55:49;29.00;;;19.67;;
18899;SDS011;9582;52.018;6.306;2022-10-13T12:58:20;29.65;;;19.73;;
18899;SDS011;9582;52.018;6.306;2022-10-13T13:03:55;30.58;;;18.80;;
18899;SDS011;9582;52.018;6.306;2022-10-13T13:06:32;29.35;;;19.02;;
18899;SDS011;9582;52.018;6.306;2022-10-13T13:09:17;29.67;;;18.77;;
18899;SDS011;9582;52.018;6.306;2022-10-13T13:11:48;26.05;;;18.00;;
18899;SDS011;9582;52.018;6.306;2022-10-13T13:14:36;26.58;;;18.45;;
18899;SDS011;9582;52.018;6.306;2022-10-13T13:17:06;22.35;;;16.25;;
18899;SDS011;9582;52.018;6.306;2022-10-13T13:19:36;25.60;;;18.30;;
18899;SDS011;9582;52.018;6.306;2022-10-13T13:22:03;22.50;;;16.13;;
18899;SDS011;9582;52.018;6.306;2022-10-13T13:24:31;28.65;;;17.90;;
18899;SDS011;9582;52.018;6.306;2022-10-13T13:27:00;25.20;;;17.90;;
18899;SDS011;9582;52.018;6.306;2022-10-13T13:29:36;27.85;;;18.98;;
18899;SDS011;9582;52.018;6.306;2022-10-13T13:32:03;27.80;;;18.77;;
18899;SDS011;9582;52.018;6.306;2022-10-13T13:34:32;30.35;;;20.27;;
18899;SDS011;9582;52.018;6.306;2022-10-13T13:36:59;29.90;;;19.30;;
18899;SDS011;9582;52.018;6.306;2022-10-13T13:39:27;32.25;;;19.85;;
18899;SDS011;9582;52.018;6.306;2022-10-13T13:41:53;26.30;;;18.85;;
18899;SDS011;9582;52.018;6.306;2022-10-13T13:44:20;28.17;;;19.13;;
18899;SDS011;9582;52.018;6.306;2022-10-13T13:46:46;30.83;;;19.35;;
18899;SDS011;9582;52.018;6.306;2022-10-13T13:49:13;33.28;;;19.85;;
18899;SDS011;9582;52.018;6.306;2022-10-13T13:51:41;29.50;;;19.63;;
18899;SDS011;9582;52.018;6.306;2022-10-13T13:54:07;30.85;;;20.13;;
18899;SDS011;9582;52.018;6.306;2022-10-13T13:56:34;26.88;;;20.02;;
18899;SDS011;9582;52.018;6.306;2022-10-13T13:59:01;25.33;;;18.25;;
18899;SDS011;9582;52.018;6.306;2022-10-13T14:01:27;31.88;;;20.10;;
18899;SDS011;9582;52.018;6.306;2022-10-13T14:03:56;27.60;;;18.88;;
18899;SDS011;9582;52.018;6.306;2022-10-13T14:06:23;30.90;;;20.40;;
18899;SDS011;9582;52.018;6.306;2022-10-13T14:08:51;32.72;;;19.88;;
18899;SDS011;9582;52.018;6.306;2022-10-13T14:11:18;33.50;;;20.95;;
18899;SDS011;9582;52.018;6.306;2022-10-13T14:13:44;33.50;;;20.75;;
18899;SDS011;9582;52.018;6.306;2022-10-13T14:16:14;37.60;;;22.92;;
18899;SDS011;9582;52.018;6.306;2022-10-13T14:18:42;32.95;;;22.00;;
18899;SDS011;9582;52.018;6.306;2022-10-13T14:21:09;33.42;;;21.08;;
18899;SDS011;9582;52.018;6.306;2022-10-13T14:23:35;37.30;;;22.27;;
18899;SDS011;9582;52.018;6.306;2022-10-13T14:26:07;37.25;;;22.83;;
18899;SDS011;9582;52.018;6.306;2022-10-13T14:28:34;37.88;;;22.38;;
18899;SDS011;9582;52.018;6.306;2022-10-13T14:31:03;32.83;;;21.98;;
18899;SDS011;9582;52.018;6.306;2022-10-13T14:33:30;34.88;;;21.92;;
18899;SDS011;9582;52.018;6.306;2022-10-13T14:35:59;37.13;;;21.23;;
18899;SDS011;9582;52.018;6.306;2022-10-13T14:38:26;33.92;;;22.65;;
18899;SDS011;9582;52.018;6.306;2022-10-13T14:40:56;35.10;;;21.35;;
18899;SDS011;9582;52.018;6.306;2022-10-13T14:43:25;38.95;;;22.33;;
18899;SDS011;9582;52.018;6.306;2022-10-13T14:45:52;29.73;;;20.60;;
18899;SDS011;9582;52.018;6.306;2022-10-13T14:48:19;32.58;;;20.17;;
18899;SDS011;9582;52.018;6.306;2022-10-13T14:50:46;33.85;;;21.20;;
18899;SDS011;9582;52.018;6.306;2022-10-13T14:53:12;36.67;;;21.75;;
18899;SDS011;9582;52.018;6.306;2022-10-13T14:55:40;33.70;;;21.02;;
18899;SDS011;9582;52.018;6.306;2022-10-13T14:58:06;33.08;;;20.88;;
18899;SDS011;9582;52.018;6.306;2022-10-13T15:00:34;34.33;;;20.63;;
18899;SDS011;9582;52.018;6.306;2022-10-13T15:03:01;37.33;;;21.50;;
18899;SDS011;9582;52.018;6.306;2022-10-13T15:05:29;36.97;;;21.23;;
18899;SDS011;9582;52.018;6.306;2022-10-13T15:07:55;30.08;;;19.88;;
18899;SDS011;9582;52.018;6.306;2022-10-13T15:10:22;39.15;;;22.05;;
18899;SDS011;9582;52.018;6.306;2022-10-13T15:12:48;36.65;;;21.20;;
18899;SDS011;9582;52.018;6.306;2022-10-13T15:15:15;36.17;;;20.83;;